createdAt,value
2023-05-05T00:02:31.787Z,94167.94
2023-05-05T00:05:35.803Z,94159.41
2023-05-05T00:08:39.332Z,94167.78
2023-05-05T00:11:42.853Z,94164.59
2023-05-05T00:14:46.434Z,94168.41
2023-05-05T00:17:50.063Z,94170.63
2023-05-05T00:20:53.721Z,94174.81
2023-05-05T00:23:57.934Z,94176.66
2023-05-05T00:27:02.740Z,94163.50
2023-05-05T00:30:07.966Z,94161.44
2023-05-05T00:33:11.858Z,94162.19
2023-05-05T00:36:16.003Z,94156.00
2023-05-05T00:39:19.509Z,94161.34
2023-05-05T00:42:23.265Z,94164.13
2023-05-05T00:45:27.051Z,94159.88
2023-05-05T00:48:31.923Z,94160.84
2023-05-05T00:51:35.912Z,94162.03
2023-05-05T00:54:40.083Z,94166.81
2023-05-05T00:57:44.948Z,94158.53
2023-05-05T01:00:49.192Z,94166.59
2023-05-05T01:03:52.979Z,94162.13
2023-05-05T01:07:12.083Z,94165.03
2023-05-05T01:10:40.160Z,94165.28
2023-05-05T01:14:09.341Z,94160.31
2023-05-05T01:17:20.256Z,94155.13
2023-05-05T01:20:55.997Z,94156.47
2023-05-05T01:24:14.662Z,94157.16
2023-05-05T01:27:34.768Z,94145.81
2023-05-05T01:30:59.520Z,94148.59
2023-05-05T01:34:09.541Z,94139.00
2023-05-05T01:37:27.308Z,94142.16
2023-05-05T01:40:35.029Z,94138.38
2023-05-05T01:43:39.090Z,94135.13
2023-05-05T01:46:42.116Z,94136.09
2023-05-05T01:49:48.015Z,94128.31
2023-05-05T01:52:54.414Z,94118.34
2023-05-05T01:55:59.205Z,94123.09
2023-05-05T01:59:04.441Z,94131.34
2023-05-05T02:02:12.279Z,94128.22
2023-05-05T02:05:17.527Z,94123.88
2023-05-05T02:08:22.309Z,94123.34
2023-05-05T02:11:28.793Z,94121.84
2023-05-05T02:14:33.657Z,94115.00
2023-05-05T02:17:37.839Z,94122.50
2023-05-05T02:20:42.214Z,94130.00
2023-05-05T02:23:52.558Z,94117.94
2023-05-05T02:26:58.661Z,94112.59
2023-05-05T02:30:14.877Z,94107.88
2023-05-05T02:33:22.798Z,94109.03
2023-05-05T02:36:30.863Z,94103.97
2023-05-05T02:39:46.212Z,94102.84
2023-05-05T02:42:57.301Z,94096.53
2023-05-05T02:46:06.659Z,94092.81
2023-05-05T02:49:10.711Z,94085.69
2023-05-05T02:52:15.889Z,94079.06
2023-05-05T02:55:21.116Z,94082.44
2023-05-05T02:58:39.363Z,94090.84
2023-05-05T03:02:01.013Z,94091.28
2023-05-05T03:05:46.362Z,94084.44
2023-05-05T03:08:53.219Z,94090.28
2023-05-05T03:12:04.502Z,94085.50
2023-05-05T03:15:17.503Z,94076.97
2023-05-05T03:18:24.456Z,94081.09
2023-05-05T03:21:35.576Z,94063.00
2023-05-05T03:24:39.004Z,94068.47
2023-05-05T03:27:45.593Z,94064.06
2023-05-05T03:30:52.825Z,94073.63
2023-05-05T03:33:57.411Z,94059.59
2023-05-05T03:37:05.556Z,94055.66
2023-05-05T03:40:10.162Z,94049.56
2023-05-05T03:43:13.971Z,94052.59
2023-05-05T03:46:18.071Z,94045.88
2023-05-05T03:49:22.354Z,94041.81
2023-05-05T03:52:26.884Z,94037.38
2023-05-05T03:55:31.011Z,94036.09
2023-05-05T03:58:34.418Z,94042.59
2023-05-05T04:01:38.558Z,94039.41
2023-05-05T04:04:41.680Z,94033.19
2023-05-05T04:07:45.166Z,94028.88
2023-05-05T04:10:48.336Z,94030.47
2023-05-05T04:13:52.466Z,94028.34
2023-05-05T04:16:56.441Z,94022.50
2023-05-05T04:20:00.209Z,94007.97
2023-05-05T04:23:06.650Z,93998.13
2023-05-05T04:26:09.608Z,94001.88
2023-05-05T04:29:13.023Z,94009.84
2023-05-05T04:32:16.369Z,94004.53
2023-05-05T04:35:20.368Z,94008.84
2023-05-05T04:38:23.633Z,94015.31
2023-05-05T04:41:29.912Z,94001.22
2023-05-05T04:44:34.775Z,93997.22
2023-05-05T04:47:39.531Z,93989.50
2023-05-05T04:50:44.017Z,93978.88
2023-05-05T04:53:47.685Z,93984.09
2023-05-05T04:56:51.843Z,93977.25
2023-05-05T04:59:54.902Z,93970.06
2023-05-05T05:02:58.657Z,93976.56
2023-05-05T05:06:03.143Z,93965.69
2023-05-05T05:09:06.799Z,93952.22
2023-05-05T05:12:10.575Z,93956.88
2023-05-05T05:15:13.963Z,93958.00
2023-05-05T05:18:17.661Z,93968.13
2023-05-05T05:21:22.211Z,93948.59
2023-05-05T05:24:26.405Z,93951.13
2023-05-05T05:27:29.972Z,93951.56
2023-05-05T05:30:33.546Z,93948.72
2023-05-05T05:33:38.082Z,93936.28
2023-05-05T05:36:42.322Z,93937.34
2023-05-05T05:39:45.420Z,93937.78
2023-05-05T05:42:49.497Z,93932.44
2023-05-05T05:45:52.579Z,93926.28
2023-05-05T05:48:57.382Z,93914.44
2023-05-05T05:52:01.407Z,93915.31
2023-05-05T05:55:06.184Z,93914.31
2023-05-05T05:58:10.273Z,93917.22
2023-05-05T06:01:13.509Z,93913.78
2023-05-05T06:04:17.397Z,93919.34
2023-05-05T06:07:21.340Z,93915.41
2023-05-05T06:10:27.277Z,93904.50
2023-05-05T06:13:42.936Z,93904.00
2023-05-05T06:16:46.087Z,93887.81
2023-05-05T06:19:54.574Z,93901.25
2023-05-05T06:22:58.543Z,93889.78
2023-05-05T06:26:04.211Z,93885.59
2023-05-05T06:29:08.775Z,93877.13
2023-05-05T06:32:14.877Z,93878.41
2023-05-05T06:35:19.059Z,93900.75
2023-05-05T06:38:23.173Z,93876.69
2023-05-05T06:41:26.961Z,93877.69
2023-05-05T06:44:32.013Z,93882.53
2023-05-05T06:47:35.074Z,93870.91
2023-05-05T06:50:38.443Z,93864.19
2023-05-05T06:53:42.495Z,93873.78
2023-05-05T06:56:46.534Z,93866.19
2023-05-05T06:59:50.294Z,93869.47
2023-05-05T07:02:53.984Z,93867.66
2023-05-05T07:05:58.272Z,93855.34
2023-05-05T07:09:02.230Z,93870.09
2023-05-05T07:12:06.363Z,93857.09
2023-05-05T07:15:19.391Z,93855.44
2023-05-05T07:18:27.421Z,93853.81
2023-05-05T07:21:30.803Z,93851.59
2023-05-05T07:24:33.736Z,93857.94
2023-05-05T07:27:38.592Z,93849.72
2023-05-05T07:30:42.197Z,93834.22
2023-05-05T07:33:45.491Z,93833.41
2023-05-05T07:36:49.114Z,93820.16
2023-05-05T07:39:52.740Z,93824.03
2023-05-05T07:42:55.673Z,93821.28
2023-05-05T07:45:59.689Z,93818.97
2023-05-05T07:49:02.809Z,93819.84
2023-05-05T07:52:06.777Z,93819.63
2023-05-05T07:55:09.897Z,93809.69
2023-05-05T07:58:13.418Z,93811.19
2023-05-05T08:01:17.267Z,93800.88
2023-05-05T08:04:21.204Z,93811.94
2023-05-05T08:07:24.543Z,93801.25
2023-05-05T08:10:28.825Z,93800.06
2023-05-05T08:13:32.640Z,93806.34
2023-05-05T08:16:36.575Z,93795.56
2023-05-05T08:19:40.550Z,93805.03
2023-05-05T08:22:44.185Z,93816.63
2023-05-05T08:25:47.591Z,93804.81
2023-05-05T08:28:51.175Z,93794.31
2023-05-05T08:31:54.588Z,93795.63
2023-05-05T08:34:58.370Z,93787.25
2023-05-05T08:38:01.698Z,93796.38
2023-05-05T08:41:04.738Z,93779.13
2023-05-05T08:44:09.695Z,93794.75
2023-05-05T08:47:16.913Z,93800.75
2023-05-05T08:50:28.454Z,93801.72
2023-05-05T08:53:55.048Z,93788.19
2023-05-05T08:57:02.998Z,93789.22
2023-05-05T09:00:08.509Z,93784.09
2023-05-05T09:03:12.839Z,93787.28
2023-05-05T09:06:16.578Z,93790.63
2023-05-05T09:09:21.219Z,93793.53
2023-05-05T09:12:24.445Z,93782.22
2023-05-05T09:15:29.079Z,93780.16
2023-05-05T09:18:32.792Z,93778.72
2023-05-05T09:21:39.015Z,93772.84
2023-05-05T09:24:55.903Z,93785.09
2023-05-05T09:27:59.338Z,93767.97
2023-05-05T09:31:16.590Z,93779.47
2023-05-05T09:34:19.929Z,93786.69
2023-05-05T09:37:33.374Z,93774.28
2023-05-05T09:40:49.905Z,93765.25
2023-05-05T09:43:53.276Z,93773.75
2023-05-05T09:46:56.555Z,93778.13
2023-05-05T09:50:00.367Z,93783.00
2023-05-05T09:53:04.667Z,93778.59
2023-05-05T09:56:09.308Z,93775.75
2023-05-05T09:59:12.604Z,93774.31
2023-05-05T10:02:16.845Z,93778.19
2023-05-05T10:05:20.556Z,93771.41
2023-05-05T10:08:32.011Z,93776.84
2023-05-05T10:11:37.001Z,93770.03
2023-05-05T10:14:41.167Z,93766.09
2023-05-05T10:21:01.700Z,93765.13
2023-05-05T10:24:17.521Z,93763.22
2023-05-05T10:27:24.090Z,93763.97
2023-05-05T10:30:32.821Z,93769.88
2023-05-05T10:33:54.054Z,93767.19
2023-05-05T10:37:00.746Z,93766.00
2023-05-05T10:40:04.255Z,93762.69
2023-05-05T10:43:08.493Z,93762.97
2023-05-05T10:46:12.047Z,93761.13
2023-05-05T10:49:37.188Z,93761.31
2023-05-05T10:52:43.954Z,93767.09
2023-05-05T10:55:50.142Z,93765.72
2023-05-05T10:59:00.244Z,93762.31
2023-05-05T11:02:23.518Z,93762.50
2023-05-05T11:05:27.302Z,93757.31
2023-05-05T11:08:34.470Z,93766.75
2023-05-05T11:12:07.591Z,93763.41
2023-05-05T11:15:29.070Z,93768.16
2023-05-05T11:18:37.622Z,93776.88
2023-05-05T11:22:02.652Z,93773.47
2023-05-05T11:25:37.509Z,93788.22
2023-05-05T11:29:11.513Z,93790.81
2023-05-05T11:32:18.449Z,93792.75
2023-05-05T11:35:22.838Z,93794.06
2023-05-05T11:38:47.539Z,93798.03
2023-05-05T11:42:10.083Z,93806.09
2023-05-05T11:45:22.277Z,93800.69
2023-05-05T11:48:29.090Z,93809.16
2023-05-05T11:51:32.621Z,93810.44
2023-05-05T11:54:38.155Z,93811.84
2023-05-05T11:57:42.033Z,93811.72
2023-05-05T12:00:45.884Z,93809.56
2023-05-05T12:03:49.789Z,93817.69
2023-05-05T12:06:53.940Z,93814.88
2023-05-05T12:09:57.331Z,93821.59
2023-05-05T12:13:00.823Z,93827.03
2023-05-05T12:16:16.166Z,93834.56
2023-05-05T12:19:20.265Z,93829.00
2023-05-05T12:22:27.792Z,93830.94
2023-05-05T12:25:38.691Z,93830.13
2023-05-05T12:28:49.544Z,93839.34
2023-05-05T12:31:53.530Z,93846.03
2023-05-05T12:35:01.557Z,93845.97
2023-05-05T12:38:04.809Z,93858.00
2023-05-05T12:41:09.147Z,93860.63
2023-05-05T12:44:12.805Z,93855.78
2023-05-05T12:47:31.048Z,93865.66
2023-05-05T12:50:34.208Z,93872.88
2023-05-05T12:53:38.467Z,93875.53
2023-05-05T12:56:49.017Z,93873.50
2023-05-05T12:59:53.988Z,93871.38
2023-05-05T13:02:58.625Z,93877.94
2023-05-05T13:06:02.395Z,93889.81
2023-05-05T13:09:06.971Z,93882.44
2023-05-05T13:12:14.021Z,93881.47
2023-05-05T13:15:17.972Z,93890.16
2023-05-05T13:18:22.147Z,93895.88
2023-05-05T13:21:25.839Z,93896.31
2023-05-05T13:24:46.416Z,93899.56
2023-05-05T13:27:54.333Z,93901.34
2023-05-05T13:30:59.601Z,93902.38
2023-05-05T13:34:03.598Z,93906.22
2023-05-05T13:37:07.605Z,93907.53
2023-05-05T13:40:12.123Z,93904.16
2023-05-05T13:43:16.642Z,93899.56
2023-05-05T13:46:20.483Z,93910.94
2023-05-05T13:49:24.817Z,93911.56
2023-05-05T13:52:29.830Z,93910.91
2023-05-05T13:55:34.557Z,93910.84
2023-05-05T13:58:38.247Z,93907.97
2023-05-05T14:01:42.046Z,93917.41
2023-05-05T14:04:45.798Z,93917.44
2023-05-05T14:07:49.814Z,93922.66
2023-05-05T14:10:53.962Z,93923.91
2023-05-05T14:13:57.287Z,93925.31
2023-05-05T14:17:01.457Z,93929.16
2023-05-05T14:20:05.989Z,93927.13
2023-05-05T14:23:10.444Z,93926.41
2023-05-05T14:26:14.165Z,93929.47
2023-05-05T14:29:17.207Z,93927.69
2023-05-05T14:32:20.257Z,93927.09
2023-05-05T14:35:23.625Z,93931.13
2023-05-05T14:38:26.651Z,93922.91
2023-05-05T14:41:30.068Z,93932.75
2023-05-05T14:44:33.878Z,93929.75
2023-05-05T14:47:37.716Z,93936.31
2023-05-05T14:50:42.939Z,93943.47
2023-05-05T14:53:47.398Z,93946.72
2023-05-05T14:56:51.164Z,93945.31
2023-05-05T14:59:55.060Z,93942.06
2023-05-05T15:02:58.750Z,93941.19
2023-05-05T15:06:01.903Z,93945.56
2023-05-05T15:09:04.968Z,93944.06
2023-05-05T15:12:08.121Z,93946.97
2023-05-05T15:15:12.636Z,93954.28
2023-05-05T15:18:16.407Z,93954.06
2023-05-05T15:21:20.566Z,93942.94
2023-05-05T15:24:24.122Z,93944.78
2023-05-05T15:27:27.486Z,93948.28
2023-05-05T15:30:30.480Z,93952.06
2023-05-05T15:33:34.762Z,93949.81
2023-05-05T15:36:38.448Z,93949.69
2023-05-05T15:39:41.584Z,93947.13
2023-05-05T15:42:45.488Z,93950.41
2023-05-05T15:45:48.878Z,93954.91
2023-05-05T15:48:52.287Z,93950.69
2023-05-05T15:51:55.700Z,93953.41
2023-05-05T15:54:59.005Z,93954.66
2023-05-05T15:58:03.163Z,93961.94
2023-05-05T16:01:06.603Z,93949.25
2023-05-05T16:04:10.583Z,93961.25
2023-05-05T16:07:15.366Z,93956.28
2023-05-05T16:10:20.546Z,93956.88
2023-05-05T16:13:24.253Z,93965.09
2023-05-05T16:16:28.638Z,93966.88
2023-05-05T16:19:32.388Z,93966.66
2023-05-05T16:22:36.591Z,93966.59
2023-05-05T16:25:40.323Z,93968.06
2023-05-05T16:28:44.284Z,93972.19
2023-05-05T16:31:47.580Z,93969.81
2023-05-05T16:34:51.547Z,93970.81
2023-05-05T16:37:54.860Z,93968.19
2023-05-05T16:40:58.993Z,93966.88
2023-05-05T16:44:02.784Z,93965.41
2023-05-05T16:47:06.976Z,93963.91
2023-05-05T16:50:11.286Z,93962.38
2023-05-05T16:53:15.082Z,93966.03
2023-05-05T16:56:18.903Z,93964.41
2023-05-05T16:59:22.603Z,93956.19
2023-05-05T17:02:26.411Z,93950.44
2023-05-05T17:05:30.324Z,93961.09
2023-05-05T17:08:33.626Z,93959.91
2023-05-05T17:11:37.707Z,93959.38
2023-05-05T17:14:41.995Z,93949.13
2023-05-05T17:17:45.741Z,93954.59
2023-05-05T17:20:50.474Z,93957.41
2023-05-05T17:23:54.654Z,93951.97
2023-05-05T17:26:58.908Z,93956.03
2023-05-05T17:30:02.307Z,93951.31
2023-05-05T17:33:05.462Z,93955.03
2023-05-05T17:36:10.392Z,93960.25
2023-05-05T17:39:13.574Z,93961.66
2023-05-05T17:42:19.587Z,93961.63
2023-05-05T17:45:23.340Z,93959.41
2023-05-05T17:48:27.722Z,93957.78
2023-05-05T17:51:31.890Z,93948.00
2023-05-05T17:54:35.299Z,93949.69
2023-05-05T17:57:39.378Z,93953.13
2023-05-05T18:00:43.109Z,93951.63
2023-05-05T18:03:47.142Z,93942.66
2023-05-05T18:06:51.649Z,93944.34
2023-05-05T18:09:55.560Z,93941.06
2023-05-05T18:12:59.705Z,93940.03
2023-05-05T18:16:03.873Z,93941.25
2023-05-05T18:19:08.226Z,93945.00
2023-05-05T18:22:12.587Z,93948.03
2023-05-05T18:25:16.306Z,93953.81
2023-05-05T18:28:20.860Z,93953.53
2023-05-05T18:31:25.219Z,93953.31
2023-05-05T18:34:30.072Z,93950.19
2023-05-05T18:37:34.308Z,93957.34
2023-05-05T18:40:37.976Z,93956.03
2023-05-05T18:43:41.903Z,93956.72
2023-05-05T18:46:47.342Z,93958.09
2023-05-05T18:49:50.769Z,93959.31
2023-05-05T18:52:53.743Z,93960.44
2023-05-05T18:56:00.438Z,93952.84
2023-05-05T18:59:03.510Z,93944.47
2023-05-05T19:02:08.812Z,93962.00
2023-05-05T19:05:11.908Z,93956.28
2023-05-05T19:08:15.257Z,93958.97
2023-05-05T19:11:18.534Z,93957.53
2023-05-05T19:14:21.635Z,93963.97
2023-05-05T19:17:25.220Z,93969.88
2023-05-05T19:20:32.212Z,93961.06
2023-05-05T19:23:36.948Z,93962.19
2023-05-05T19:26:40.581Z,93968.69
2023-05-05T19:29:44.433Z,93959.88
2023-05-05T19:32:47.679Z,93960.56
2023-05-05T19:35:51.191Z,93960.56
2023-05-05T19:38:56.332Z,93960.56
2023-05-05T19:41:59.485Z,93961.56
2023-05-05T19:45:02.966Z,93974.25
2023-05-05T19:48:07.302Z,93967.22
2023-05-05T19:51:10.493Z,93967.22
2023-05-05T19:54:14.335Z,93968.41
2023-05-05T19:57:18.924Z,93975.00
2023-05-05T20:00:23.263Z,93973.97
2023-05-05T20:03:27.211Z,93971.91
2023-05-05T20:06:31.153Z,93973.00
2023-05-05T20:09:34.324Z,93969.66
2023-05-05T20:12:37.541Z,93975.66
2023-05-05T20:15:41.880Z,93975.16
2023-05-05T20:18:45.707Z,93976.94
2023-05-05T20:21:49.600Z,93969.91
2023-05-05T20:24:52.763Z,93969.22
2023-05-05T20:27:56.527Z,93965.88
2023-05-05T20:31:01.599Z,93976.00
2023-05-05T20:34:04.822Z,93968.91
2023-05-05T20:37:10.611Z,93972.94
2023-05-05T20:40:16.572Z,93976.03
2023-05-05T20:43:20.382Z,93974.47
2023-05-05T20:46:24.253Z,93980.69
2023-05-05T20:49:27.336Z,93983.47
2023-05-05T20:52:31.378Z,93987.91
2023-05-05T20:55:34.691Z,93994.59
2023-05-05T20:58:38.386Z,94001.34
2023-05-05T21:01:41.914Z,94002.63
2023-05-05T21:04:45.495Z,94000.75
2023-05-05T21:07:49.627Z,94000.00
2023-05-05T21:10:53.314Z,93994.78
2023-05-05T21:13:56.771Z,94000.66
2023-05-05T21:16:59.826Z,93997.34
2023-05-05T21:20:03.410Z,93992.44
2023-05-05T21:23:07.095Z,94002.72
2023-05-05T21:26:11.325Z,94005.19
2023-05-05T21:29:15.078Z,94005.56
2023-05-05T21:32:18.955Z,94002.84
2023-05-05T21:35:22.740Z,93997.72
2023-05-05T21:38:26.764Z,94011.97
2023-05-05T21:41:30.330Z,94012.13
2023-05-05T21:44:34.378Z,94002.28
2023-05-05T21:47:37.431Z,94011.63
2023-05-05T21:50:41.445Z,94002.94
2023-05-05T21:53:44.443Z,94005.09
2023-05-05T21:56:47.852Z,94015.91
2023-05-05T21:59:51.605Z,94015.25
2023-05-05T22:02:55.498Z,94019.59
2023-05-05T22:09:24.289Z,94028.56
2023-05-05T22:12:27.387Z,94024.53
2023-05-05T22:15:42.604Z,94022.47
2023-05-05T22:18:50.834Z,94030.81
2023-05-05T22:21:54.916Z,94039.38
2023-05-05T22:24:58.200Z,94050.34
2023-05-05T22:28:01.284Z,94057.59
2023-05-05T22:31:05.306Z,94059.78
2023-05-05T22:34:09.278Z,94064.13
2023-05-05T22:37:12.581Z,94065.34
2023-05-05T22:40:16.790Z,94066.25
2023-05-05T22:43:19.945Z,94066.34
2023-05-05T22:46:24.329Z,94072.69
2023-05-05T22:49:29.359Z,94073.31
2023-05-05T22:52:33.401Z,94064.88
2023-05-05T22:55:37.095Z,94068.69
2023-05-05T22:58:40.400Z,94063.69
2023-05-05T23:01:43.451Z,94069.09
2023-05-05T23:04:47.892Z,94073.09
2023-05-05T23:07:51.695Z,94069.88
2023-05-05T23:10:56.859Z,94075.44
2023-05-05T23:14:00.885Z,94079.47
2023-05-05T23:17:05.169Z,94081.59
2023-05-05T23:20:12.458Z,94075.75
2023-05-05T23:23:15.773Z,94083.81
2023-05-05T23:26:18.857Z,94087.16
2023-05-05T23:29:23.227Z,94091.25
2023-05-05T23:32:27.243Z,94086.41
2023-05-05T23:35:30.854Z,94080.53
2023-05-05T23:38:34.909Z,94084.00
2023-05-05T23:41:38.604Z,94075.69
2023-05-05T23:44:42.127Z,94078.84
2023-05-05T23:47:46.012Z,94078.53
2023-05-05T23:50:50.056Z,94080.44
2023-05-05T23:53:53.157Z,94088.81
2023-05-05T23:56:56.597Z,94080.47
2023-05-05T23:59:59.631Z,94081.31
